Ballentine, South Carolina
Current Conditions -  °F | °C
As of 6:56 PM on Monday 24 Nov 2014 (Local Time) from KCAE Reporting Station
Broken Clouds Broken Clouds  
Wind Chill: 69°   Ceiling: 11000
Heat Index: 69°   Visibility: 10mi
Dew Point: 65°   Wind: 0mph
Humidity: 87%   Direction: NA
Pressure: 29.84"   Gusts: NA
Location:  34.12°N, 81.24°W
Report Text: KCAE 242356Z 00000KT 10SM BKN110 21/18 A2984 RMK AO2 RAB11E37 SLP103 P0000 60000 T02060183 10233 20206 50005
Loading
Personal Weather Stations






























Interactive Weather Map New forecast layout! Learn more

10-Day Weather Forecast

Advertisements
Track Severe Weather on mobile